createdAt,value
2019-03-01T00:01:04.830Z,4.07
2019-03-01T00:03:33.886Z,4.97
2019-03-01T00:06:23.566Z,3.47
2019-03-01T00:09:01.219Z,3.87
2019-03-01T00:11:52.318Z,4.80
2019-03-01T00:14:55.678Z,4.43
2019-03-01T00:17:48.750Z,6.07
2019-03-01T00:20:23.137Z,4.40
2019-03-01T00:23:03.908Z,4.93
2019-03-01T00:25:44.337Z,3.90
2019-03-01T00:28:21.970Z,6.53
2019-03-01T00:30:53.653Z,6.10
2019-03-01T00:33:58.903Z,3.90
2019-03-01T00:36:50.061Z,4.53
2019-03-01T00:39:39.959Z,4.00
2019-03-01T00:42:17.332Z,4.43
2019-03-01T00:44:48.345Z,4.50
2019-03-01T00:47:17.200Z,4.80
2019-03-01T00:49:45.585Z,4.33
2019-03-01T00:52:14.072Z,4.50
2019-03-01T00:54:42.465Z,4.80
2019-03-01T00:57:10.895Z,5.00
2019-03-01T00:59:39.284Z,5.80
2019-03-01T01:02:07.704Z,5.10
2019-03-01T01:04:36.088Z,4.93
2019-03-01T01:07:04.524Z,4.63
2019-03-01T01:09:32.919Z,4.47
2019-03-01T01:12:01.337Z,3.93
2019-03-01T01:14:29.719Z,5.13
2019-03-01T01:16:58.148Z,5.43
2019-03-01T01:19:26.534Z,5.33
2019-03-01T01:21:55.035Z,4.90
2019-03-01T01:24:23.420Z,4.03
2019-03-01T01:26:51.831Z,5.27
2019-03-01T01:29:20.213Z,4.90
2019-03-01T01:31:48.632Z,5.27
2019-03-01T01:34:17.036Z,5.03
2019-03-01T01:36:45.457Z,5.40
2019-03-01T01:39:13.845Z,4.23
2019-03-01T01:41:42.346Z,4.57
2019-03-01T01:44:10.739Z,5.17
2019-03-01T01:46:39.125Z,5.17
2019-03-01T01:49:07.512Z,5.27
2019-03-01T01:51:35.951Z,3.70
2019-03-01T01:54:04.513Z,5.00
2019-03-01T01:56:32.993Z,5.50
2019-03-01T01:59:01.414Z,5.70
2019-03-01T02:01:29.803Z,4.67
2019-03-01T02:03:58.184Z,5.00
2019-03-01T02:06:26.741Z,4.47
2019-03-01T02:08:55.134Z,4.83
2019-03-01T02:11:23.596Z,5.43
2019-03-01T02:13:51.984Z,5.63
2019-03-01T02:16:20.374Z,6.00
2019-03-01T02:18:57.256Z,4.83
2019-03-01T02:21:18.982Z,5.77
2019-03-01T02:23:47.378Z,4.57
2019-03-01T02:26:15.772Z,5.40
2019-03-01T02:28:44.161Z,5.20
2019-03-01T02:31:12.884Z,4.10
2019-03-01T02:33:41.280Z,4.03
2019-03-01T02:36:09.667Z,4.50
2019-03-01T02:38:38.073Z,4.43
2019-03-01T02:41:06.465Z,4.63
2019-03-01T02:43:34.855Z,5.50
2019-03-01T02:46:03.244Z,5.80
2019-03-01T02:48:31.718Z,5.07
2019-03-01T02:51:00.210Z,5.03
2019-03-01T02:53:28.607Z,6.03
2019-03-01T02:55:56.999Z,5.57
2019-03-01T02:58:25.393Z,5.80
2019-03-01T03:00:53.784Z,5.20
2019-03-01T03:03:22.173Z,6.17
2019-03-01T03:05:55.195Z,5.93
2019-03-01T03:08:23.614Z,5.57
2019-03-01T03:10:52.026Z,5.43
2019-03-01T03:13:20.415Z,5.67
2019-03-01T03:15:50.687Z,6.27
2019-03-01T03:18:19.110Z,5.80
2019-03-01T03:20:47.613Z,4.83
2019-03-01T03:23:16.026Z,6.27
2019-03-01T03:25:44.415Z,4.83
2019-03-01T03:28:12.854Z,6.20
2019-03-01T03:30:41.242Z,6.27
2019-03-01T03:33:09.696Z,6.57
2019-03-01T03:35:38.087Z,6.43
2019-03-01T03:38:06.513Z,6.57
2019-03-01T03:40:34.900Z,4.80
2019-03-01T03:43:03.333Z,6.00
2019-03-01T03:45:31.720Z,7.37
2019-03-01T03:48:00.223Z,7.40
2019-03-01T03:50:28.607Z,6.77
2019-03-01T03:52:57.046Z,6.00
2019-03-01T03:55:25.467Z,6.53
2019-03-01T03:57:53.854Z,6.80
2019-03-01T04:00:25.691Z,7.10
2019-03-01T04:02:54.279Z,7.70
2019-03-01T04:05:22.636Z,6.97
2019-03-01T04:07:51.023Z,7.13
2019-03-01T04:10:19.414Z,7.00
2019-03-01T04:12:47.813Z,6.57
2019-03-01T04:15:18.885Z,6.67
2019-03-01T04:17:47.269Z,6.00
2019-03-01T04:20:19.035Z,5.97
2019-03-01T04:22:47.421Z,6.53
2019-03-01T04:25:15.814Z,7.13
2019-03-01T04:27:44.214Z,6.73
2019-03-01T04:30:14.731Z,7.70
2019-03-01T04:32:43.152Z,7.63
2019-03-01T04:35:11.670Z,7.20
2019-03-01T04:37:40.149Z,6.90
2019-03-01T04:40:13.699Z,6.13
2019-03-01T04:42:42.132Z,6.40
2019-03-01T04:45:15.593Z,7.30
2019-03-01T04:47:44.147Z,7.93
2019-03-01T04:50:12.805Z,7.73
2019-03-01T04:52:41.739Z,7.23
2019-03-01T04:55:18.525Z,6.53
2019-03-01T04:57:46.917Z,6.80
2019-03-01T05:00:17.251Z,6.60
2019-03-01T05:02:45.637Z,7.03
2019-03-01T05:05:14.373Z,7.03
2019-03-01T05:07:42.757Z,6.83
2019-03-01T05:10:13.084Z,6.50
2019-03-01T05:12:41.485Z,6.70
2019-03-01T05:15:18.451Z,7.27
2019-03-01T05:17:46.845Z,6.60
2019-03-01T05:20:15.240Z,8.63
2019-03-01T05:22:43.630Z,7.77
2019-03-01T05:25:12.189Z,6.53
2019-03-01T05:27:40.564Z,7.87
2019-03-01T05:30:11.596Z,6.77
2019-03-01T05:32:40.011Z,6.77
2019-03-01T05:35:08.663Z,7.03
2019-03-01T05:37:37.093Z,7.67
2019-03-01T05:40:08.662Z,7.10
2019-03-01T05:42:37.058Z,8.10
2019-03-01T05:45:08.844Z,7.50
2019-03-01T05:47:37.233Z,7.57
2019-03-01T05:50:08.890Z,6.63
2019-03-01T05:52:37.287Z,7.50
2019-03-01T05:55:08.153Z,7.80
2019-03-01T05:57:36.544Z,7.83
2019-03-01T06:00:09.929Z,7.37
2019-03-01T06:02:47.115Z,7.23
2019-03-01T06:05:15.705Z,6.27
2019-03-01T06:07:59.271Z,5.03
2019-03-01T06:10:28.441Z,5.87
2019-03-01T06:13:22.817Z,3.63
2019-03-01T06:16:00.470Z,4.43
2019-03-01T06:18:48.555Z,5.10
2019-03-01T06:21:55.260Z,5.40
2019-03-01T06:24:51.245Z,5.43
2019-03-01T06:27:39.158Z,5.33
2019-03-01T06:30:25.815Z,5.63
2019-03-01T06:33:12.496Z,6.23
2019-03-01T06:36:02.231Z,6.60
2019-03-01T06:38:53.132Z,6.27
2019-03-01T06:41:35.119Z,6.07
2019-03-01T06:44:06.854Z,6.90
2019-03-01T06:46:55.328Z,6.37
2019-03-01T06:49:25.356Z,5.97
2019-03-01T06:51:53.749Z,6.80
2019-03-01T06:54:22.149Z,7.07
2019-03-01T06:56:50.553Z,6.87
2019-03-01T06:59:18.979Z,7.67
2019-03-01T07:01:48.126Z,7.57
2019-03-01T07:04:17.097Z,7.40
2019-03-01T07:06:45.491Z,7.90
2019-03-01T07:09:13.929Z,8.17
2019-03-01T07:11:42.322Z,8.03
2019-03-01T07:14:10.756Z,8.87
2019-03-01T07:16:39.146Z,7.43
2019-03-01T07:19:07.594Z,7.73
2019-03-01T07:21:36.039Z,7.90
2019-03-01T07:24:04.574Z,7.40
2019-03-01T07:26:33.021Z,7.67
2019-03-01T07:29:01.423Z,7.73
2019-03-01T07:31:29.806Z,8.03
2019-03-01T07:33:58.198Z,7.60
2019-03-01T07:36:26.579Z,8.13
2019-03-01T07:38:54.974Z,7.23
2019-03-01T07:41:23.604Z,7.37
2019-03-01T07:43:51.995Z,8.47
2019-03-01T07:46:20.447Z,7.10
2019-03-01T07:48:48.901Z,7.60
2019-03-01T07:51:17.300Z,7.77
2019-03-01T07:53:45.680Z,7.00
2019-03-01T07:56:14.157Z,7.27
2019-03-01T07:58:42.550Z,6.60
2019-03-01T08:01:10.935Z,6.50
2019-03-01T08:03:39.334Z,6.30
2019-03-01T08:06:13.098Z,7.23
2019-03-01T08:08:38.787Z,7.33
2019-03-01T08:11:08.039Z,7.00
2019-03-01T08:13:36.423Z,7.03
2019-03-01T08:16:04.806Z,6.70
2019-03-01T08:18:33.201Z,7.03
2019-03-01T08:21:01.597Z,6.90
2019-03-01T08:23:31.712Z,7.10
2019-03-01T08:26:00.128Z,6.60
2019-03-01T08:28:28.603Z,7.20
2019-03-01T08:30:56.983Z,7.07
2019-03-01T08:33:25.397Z,7.10
2019-03-01T08:35:53.785Z,6.70
2019-03-01T08:38:25.370Z,6.63
2019-03-01T08:40:54.449Z,6.77
2019-03-01T08:43:22.498Z,6.27
2019-03-01T08:45:50.885Z,6.20
2019-03-01T08:48:19.295Z,6.37
2019-03-01T08:50:47.678Z,6.53
2019-03-01T08:53:16.201Z,6.57
2019-03-01T08:55:44.595Z,5.83
2019-03-01T08:58:13.003Z,6.20
2019-03-01T09:00:43.823Z,6.50
2019-03-01T09:03:35.048Z,7.37
2019-03-01T09:06:03.436Z,7.20
2019-03-01T09:08:31.864Z,6.33
2019-03-01T09:11:00.254Z,6.40
2019-03-01T09:13:28.676Z,6.27
2019-03-01T09:15:57.065Z,5.83
2019-03-01T09:18:25.538Z,6.20
2019-03-01T09:20:53.921Z,6.27
2019-03-01T09:23:26.417Z,5.90
2019-03-01T09:25:52.466Z,5.93
2019-03-01T09:28:20.885Z,6.10
2019-03-01T09:30:49.273Z,6.37
2019-03-01T09:33:21.573Z,5.70
2019-03-01T09:35:52.141Z,5.97
2019-03-01T09:38:20.573Z,5.70
2019-03-01T09:40:48.956Z,6.27
2019-03-01T09:43:17.392Z,5.43
2019-03-01T09:45:48.814Z,5.87
2019-03-01T09:48:15.906Z,5.83
2019-03-01T09:50:44.298Z,6.17
2019-03-01T09:53:12.703Z,5.53
2019-03-01T09:55:41.076Z,5.80
2019-03-01T09:58:09.468Z,5.63
2019-03-01T10:00:56.042Z,5.13
2019-03-01T10:03:17.123Z,5.70
2019-03-01T10:05:45.509Z,5.60
2019-03-01T10:08:14.238Z,5.43
2019-03-01T10:10:42.634Z,5.20
2019-03-01T10:13:11.021Z,5.73
2019-03-01T10:15:39.414Z,5.67
2019-03-01T10:18:07.805Z,5.43
2019-03-01T10:20:36.268Z,5.03
2019-03-01T10:23:04.652Z,5.40
2019-03-01T10:25:33.040Z,5.10
2019-03-01T10:28:01.429Z,4.97
2019-03-01T10:30:29.882Z,5.00
2019-03-01T10:32:58.294Z,4.73
2019-03-01T10:35:26.670Z,4.83
2019-03-01T10:37:55.133Z,4.83
2019-03-01T10:40:24.671Z,4.70
2019-03-01T10:42:53.048Z,4.70
2019-03-01T10:45:24.723Z,4.73
2019-03-01T10:47:53.109Z,4.80
2019-03-01T10:50:21.496Z,4.63
2019-03-01T10:52:49.892Z,4.37
2019-03-01T10:55:19.201Z,4.30
2019-03-01T10:57:47.656Z,4.57
2019-03-01T11:00:26.737Z,4.50
2019-03-01T11:02:56.064Z,4.30
2019-03-01T11:05:25.238Z,4.47
2019-03-01T11:07:57.202Z,4.30
2019-03-01T11:10:28.856Z,4.10
2019-03-01T11:12:57.243Z,4.13
2019-03-01T11:15:25.649Z,4.33
2019-03-01T11:17:54.125Z,4.20
2019-03-01T11:20:22.892Z,4.20
2019-03-01T11:22:51.320Z,4.07
2019-03-01T11:25:21.965Z,3.90
2019-03-01T11:27:50.351Z,4.07
2019-03-01T11:30:27.467Z,3.50
2019-03-01T11:32:55.862Z,4.00
2019-03-01T11:35:24.286Z,4.10
2019-03-01T11:37:52.685Z,4.10
2019-03-01T11:40:23.884Z,4.23
2019-03-01T11:42:52.269Z,4.20
2019-03-01T11:45:20.710Z,3.90
2019-03-01T11:47:49.127Z,4.00
2019-03-01T11:50:22.666Z,4.30
2019-03-01T11:52:51.126Z,3.90
2019-03-01T11:55:19.614Z,3.90
2019-03-01T11:57:48.247Z,3.90
2019-03-01T12:00:26.585Z,3.70
2019-03-01T12:02:54.967Z,4.13
2019-03-01T12:05:23.374Z,3.90
2019-03-01T12:07:51.767Z,4.10
2019-03-01T12:10:28.604Z,3.60
2019-03-01T12:12:58.621Z,4.20
2019-03-01T12:15:27.088Z,3.93
2019-03-01T12:17:55.483Z,4.47
2019-03-01T12:20:30.010Z,3.90
2019-03-01T12:22:58.398Z,4.17
2019-03-01T12:25:26.794Z,4.30
2019-03-01T12:27:55.227Z,4.00
2019-03-01T12:30:25.194Z,3.97
2019-03-01T12:32:53.639Z,3.67
2019-03-01T12:35:22.033Z,4.07
2019-03-01T12:37:50.413Z,3.87
2019-03-01T12:40:30.041Z,4.60
2019-03-01T12:42:58.434Z,4.80
2019-03-01T12:45:26.825Z,4.40
2019-03-01T12:47:55.231Z,4.03
2019-03-01T12:50:23.699Z,4.40
2019-03-01T12:52:52.095Z,4.00
2019-03-01T12:55:25.859Z,4.37
2019-03-01T12:57:54.301Z,4.53
2019-03-01T13:00:25.209Z,4.47
2019-03-01T13:02:53.590Z,4.67
2019-03-01T13:05:22.019Z,4.23
2019-03-01T13:07:50.406Z,4.30
2019-03-01T13:10:22.103Z,4.37
2019-03-01T13:12:50.487Z,4.67
2019-03-01T13:15:18.893Z,4.50
2019-03-01T13:17:47.290Z,4.20
2019-03-01T13:20:18.345Z,4.63
2019-03-01T13:22:46.780Z,4.20
2019-03-01T13:25:15.790Z,3.73
2019-03-01T13:27:44.198Z,4.40
2019-03-01T13:30:17.702Z,4.90
2019-03-01T13:32:46.100Z,4.10
2019-03-01T13:35:16.461Z,4.20
2019-03-01T13:37:44.852Z,4.30
2019-03-01T13:40:15.328Z,4.37
2019-03-01T13:42:43.711Z,4.20
2019-03-01T13:45:17.287Z,4.50
2019-03-01T13:47:45.663Z,4.53
2019-03-01T13:50:16.234Z,4.40
2019-03-01T13:52:44.631Z,5.03
2019-03-01T13:55:14.899Z,4.30
2019-03-01T13:57:46.008Z,4.63
2019-03-01T14:00:21.914Z,4.00
2019-03-01T14:02:50.443Z,4.50
2019-03-01T14:05:19.006Z,4.53
2019-03-01T14:07:48.331Z,4.57
2019-03-01T14:10:19.588Z,4.10
2019-03-01T14:12:47.986Z,4.43
2019-03-01T14:15:17.642Z,4.10
2019-03-01T14:17:46.021Z,3.83
2019-03-01T14:20:20.361Z,4.10
2019-03-01T14:22:49.419Z,4.40
2019-03-01T14:25:18.364Z,3.93
2019-03-01T14:27:46.799Z,4.00
2019-03-01T14:30:31.166Z,4.37
2019-03-01T14:32:57.491Z,3.93
2019-03-01T14:35:27.178Z,3.97
2019-03-01T14:37:55.976Z,3.77
2019-03-01T14:40:24.418Z,3.90
2019-03-01T14:42:52.799Z,4.10
2019-03-01T14:45:32.526Z,4.10
2019-03-01T14:48:00.912Z,4.03
2019-03-01T14:50:33.623Z,4.00
2019-03-01T14:53:00.648Z,4.27
2019-03-01T14:55:38.112Z,4.00
2019-03-01T14:58:15.695Z,4.67
2019-03-01T15:00:56.139Z,4.50
2019-03-01T15:03:32.952Z,4.20
2019-03-01T15:06:01.325Z,4.30
2019-03-01T15:08:30.075Z,4.27
2019-03-01T15:11:04.396Z,4.23
2019-03-01T15:13:34.783Z,4.40
2019-03-01T15:16:04.691Z,4.47
2019-03-01T15:18:33.654Z,4.37
2019-03-01T15:21:02.837Z,4.73
2019-03-01T15:23:31.446Z,4.70
2019-03-01T15:25:59.893Z,4.43
2019-03-01T15:28:28.294Z,4.90
2019-03-01T15:30:57.345Z,4.83
2019-03-01T15:33:25.907Z,4.67
2019-03-01T15:35:54.386Z,4.73
2019-03-01T15:38:23.921Z,4.57
2019-03-01T15:40:52.920Z,4.70
2019-03-01T15:43:21.360Z,4.57
2019-03-01T15:45:49.748Z,4.67
2019-03-01T15:48:18.131Z,4.97
2019-03-01T15:50:46.523Z,5.83
2019-03-01T15:53:14.916Z,4.83
2019-03-01T15:55:44.954Z,5.57
2019-03-01T15:58:13.357Z,5.20
2019-03-01T16:00:41.746Z,5.10
2019-03-01T16:03:10.140Z,5.67
2019-03-01T16:05:38.533Z,5.27
2019-03-01T16:08:08.365Z,5.77
2019-03-01T16:10:37.039Z,5.47
2019-03-01T16:13:08.314Z,5.37
2019-03-01T16:15:38.720Z,5.57
2019-03-01T16:18:05.692Z,6.37
2019-03-01T16:20:34.128Z,6.77
2019-03-01T16:23:02.519Z,6.57
2019-03-01T16:25:30.903Z,5.80
2019-03-01T16:27:59.296Z,6.57
2019-03-01T16:30:27.682Z,5.67
2019-03-01T16:32:56.083Z,10.30
2019-03-01T16:35:24.469Z,7.30
2019-03-01T16:37:57.878Z,15.90
2019-03-01T16:40:27.594Z,13.30
2019-03-01T16:42:55.994Z,9.37
2019-03-01T16:45:24.541Z,8.57
2019-03-01T16:47:52.929Z,10.87
2019-03-01T16:50:21.491Z,8.83
2019-03-01T16:52:49.889Z,9.30
2019-03-01T16:55:24.353Z,8.70
2019-03-01T16:58:05.986Z,9.00
2019-03-01T17:00:24.478Z,9.50
2019-03-01T17:03:17.104Z,8.70
2019-03-01T17:05:43.722Z,8.93
2019-03-01T17:08:12.118Z,10.47
2019-03-01T17:10:40.510Z,9.90
2019-03-01T17:13:08.900Z,9.83
2019-03-01T17:15:37.304Z,10.70
2019-03-01T17:18:11.276Z,10.17
2019-03-01T17:20:38.402Z,11.13
2019-03-01T17:23:06.050Z,11.63
2019-03-01T17:25:34.458Z,11.73
2019-03-01T17:28:02.892Z,12.17
2019-03-01T17:30:31.291Z,11.47
2019-03-01T17:32:59.747Z,11.60
2019-03-01T17:35:28.125Z,12.33
2019-03-01T17:37:56.558Z,12.53
2019-03-01T17:40:24.974Z,12.00
2019-03-01T17:42:56.582Z,12.87
2019-03-01T17:45:25.726Z,12.87
2019-03-01T17:47:55.398Z,13.77
2019-03-01T17:50:23.945Z,12.53
2019-03-01T17:52:52.432Z,13.53
2019-03-01T17:55:25.467Z,14.50
2019-03-01T17:57:54.021Z,13.77
2019-03-01T18:00:34.033Z,13.23
2019-03-01T18:03:02.424Z,13.07
2019-03-01T18:05:30.827Z,15.17
2019-03-01T18:07:59.845Z,14.10
2019-03-01T18:10:32.095Z,15.90
2019-03-01T18:12:59.493Z,14.33
2019-03-01T18:15:27.885Z,14.37
2019-03-01T18:17:57.210Z,14.33
2019-03-01T18:20:25.608Z,14.40
2019-03-01T18:22:54.206Z,14.13
2019-03-01T18:25:25.877Z,13.90
2019-03-01T18:27:53.807Z,14.23
2019-03-01T18:30:23.935Z,14.53
2019-03-01T18:32:52.516Z,14.83
2019-03-01T18:35:20.921Z,14.90
2019-03-01T18:37:51.434Z,15.67
2019-03-01T18:40:21.092Z,14.37
2019-03-01T18:42:49.491Z,14.07
2019-03-01T18:45:22.734Z,14.00
2019-03-01T18:47:51.169Z,13.83
2019-03-01T18:50:31.347Z,13.60
2019-03-01T18:53:00.171Z,13.90
2019-03-01T18:55:28.563Z,14.10
2019-03-01T18:57:56.996Z,13.40
2019-03-01T19:00:32.418Z,13.60
2019-03-01T19:03:04.379Z,13.33
2019-03-01T19:05:32.016Z,15.37
2019-03-01T19:08:00.862Z,16.57
2019-03-01T19:10:30.668Z,16.23
2019-03-01T19:12:59.112Z,17.47
2019-03-01T19:15:27.497Z,16.30
2019-03-01T19:17:55.995Z,18.10
2019-03-01T19:20:29.414Z,18.43
2019-03-01T19:22:58.683Z,16.77
2019-03-01T19:25:27.173Z,17.60
2019-03-01T19:27:55.622Z,18.80
2019-03-01T19:30:25.486Z,18.67
2019-03-01T19:32:53.898Z,19.47
2019-03-01T19:35:28.262Z,20.07
2019-03-01T19:37:53.579Z,20.37
2019-03-01T19:40:22.925Z,19.80
2019-03-01T19:42:53.028Z,20.60
2019-03-01T19:45:21.431Z,19.23
2019-03-01T19:47:49.858Z,20.93
2019-03-01T19:50:25.009Z,19.43
2019-03-01T19:52:53.799Z,19.67
2019-03-01T19:55:22.186Z,18.73
2019-03-01T19:57:50.622Z,20.27
2019-03-01T20:00:27.152Z,19.23
2019-03-01T20:02:55.588Z,19.40
2019-03-01T20:05:31.715Z,19.53
2019-03-01T20:07:59.263Z,20.27
2019-03-01T20:10:27.709Z,19.37
2019-03-01T20:12:56.065Z,19.50
2019-03-01T20:15:25.972Z,19.60
2019-03-01T20:17:54.937Z,21.73
2019-03-01T20:20:25.736Z,21.03
2019-03-01T20:22:55.241Z,22.27
2019-03-01T20:25:23.747Z,23.40
2019-03-01T20:27:52.180Z,22.20
2019-03-01T20:30:30.117Z,22.73
2019-03-01T20:32:55.618Z,24.93
2019-03-01T20:35:25.838Z,29.23
2019-03-01T20:37:54.234Z,33.63
2019-03-01T20:40:26.138Z,32.43
2019-03-01T20:42:55.860Z,30.90
2019-03-01T20:45:29.937Z,32.10
2019-03-01T20:47:58.836Z,29.47
2019-03-01T20:50:27.306Z,30.53
2019-03-01T20:52:55.874Z,33.70
2019-03-01T20:55:24.270Z,35.23
2019-03-01T20:57:52.674Z,38.73
2019-03-01T21:00:26.157Z,38.37
2019-03-01T21:02:56.657Z,37.67
2019-03-01T21:05:28.737Z,36.63
2019-03-01T21:07:55.183Z,33.60
2019-03-01T21:10:27.951Z,31.03
2019-03-01T21:12:56.451Z,30.70
2019-03-01T21:15:25.000Z,29.83
2019-03-01T21:17:56.934Z,37.40
2019-03-01T21:20:23.516Z,45.03
2019-03-01T21:22:54.327Z,49.60
2019-03-01T21:25:23.965Z,33.70
2019-03-01T21:27:52.445Z,32.57
2019-03-01T21:30:34.650Z,29.47
2019-03-01T21:33:03.051Z,27.07
2019-03-01T21:35:31.448Z,26.20
2019-03-01T21:37:59.854Z,24.97
2019-03-01T21:40:31.464Z,23.80
2019-03-01T21:43:00.180Z,23.50
2019-03-01T21:45:28.513Z,23.40
2019-03-01T21:47:56.969Z,22.33
2019-03-01T21:50:25.381Z,21.87
2019-03-01T21:52:53.783Z,21.40
2019-03-01T21:55:28.558Z,20.80
2019-03-01T21:57:56.727Z,20.33
2019-03-01T22:00:31.391Z,20.43
2019-03-01T22:02:59.608Z,19.17
2019-03-01T22:05:28.079Z,18.73
2019-03-01T22:07:56.508Z,18.37
2019-03-01T22:10:24.917Z,18.27
2019-03-01T22:12:53.327Z,17.00
2019-03-01T22:15:29.399Z,16.50
2019-03-01T22:17:57.795Z,16.50
2019-03-01T22:20:26.245Z,16.80
2019-03-01T22:22:54.635Z,15.53
2019-03-01T22:25:23.104Z,15.90
2019-03-01T22:27:51.507Z,14.60
2019-03-01T22:30:28.770Z,15.20
2019-03-01T22:32:57.162Z,15.37
2019-03-01T22:35:25.572Z,15.07
2019-03-01T22:37:54.042Z,14.40
2019-03-01T22:40:24.006Z,14.67
2019-03-01T22:42:52.566Z,13.73
2019-03-01T22:45:20.967Z,13.20
2019-03-01T22:47:49.372Z,14.03
2019-03-01T22:50:19.991Z,12.97
2019-03-01T22:52:48.538Z,12.77
2019-03-01T22:55:17.774Z,13.67
2019-03-01T22:57:46.173Z,13.07
2019-03-01T23:00:28.052Z,12.83
2019-03-01T23:02:56.451Z,12.80
2019-03-01T23:05:24.857Z,11.70
2019-03-01T23:07:53.258Z,12.60
2019-03-01T23:10:22.402Z,12.50
2019-03-01T23:12:50.903Z,12.57
2019-03-01T23:15:19.389Z,11.70
2019-03-01T23:17:47.807Z,11.53
2019-03-01T23:20:16.219Z,11.03
2019-03-01T23:22:46.039Z,10.43
2019-03-01T23:25:14.697Z,10.53
2019-03-01T23:27:43.100Z,11.13
2019-03-01T23:30:11.534Z,11.80
2019-03-01T23:32:39.925Z,11.10
2019-03-01T23:35:08.397Z,10.87
2019-03-01T23:37:38.814Z,10.93
2019-03-01T23:40:07.476Z,10.67
2019-03-01T23:42:35.952Z,9.83
2019-03-01T23:45:13.813Z,10.93
2019-03-01T23:47:41.431Z,10.67
2019-03-01T23:50:10.331Z,9.70
2019-03-01T23:52:38.805Z,10.00
2019-03-01T23:55:07.872Z,10.63
2019-03-01T23:57:38.089Z,10.17
